createdAt,value
2023-01-09T00:01:51.220Z,3.50
2023-01-09T00:04:33.780Z,5.23
2023-01-09T00:07:05.541Z,3.87
2023-01-09T00:21:44.820Z,3.83
2023-01-09T00:24:26.075Z,6.80
2023-01-09T00:27:08.979Z,5.67
2023-01-09T00:29:37.737Z,5.17
2023-01-09T00:32:10.924Z,3.70
2023-01-09T00:34:46.128Z,4.70
2023-01-09T00:37:15.100Z,3.33
2023-01-09T00:39:48.572Z,5.00
2023-01-09T00:42:25.255Z,4.60
2023-01-09T00:44:56.792Z,3.33
2023-01-09T00:47:36.930Z,3.23
2023-01-09T00:50:10.038Z,2.13
2023-01-09T00:52:39.566Z,3.87
2023-01-09T00:55:09.408Z,3.67
2023-01-09T00:57:39.875Z,5.67
2023-01-09T01:00:09.463Z,5.57
2023-01-09T01:02:38.834Z,3.73
2023-01-09T01:05:29.895Z,3.33
2023-01-09T01:08:05.117Z,4.63
2023-01-09T01:10:51.389Z,3.77
2023-01-09T01:13:20.927Z,4.33
2023-01-09T01:15:54.155Z,3.17
2023-01-09T01:18:23.047Z,4.67
2023-01-09T01:20:58.073Z,4.20
2023-01-09T01:23:29.594Z,2.80
2023-01-09T01:26:02.677Z,3.77
2023-01-09T01:28:36.998Z,6.50
2023-01-09T01:31:06.539Z,4.20
2023-01-09T01:33:56.732Z,4.13
2023-01-09T01:36:35.217Z,4.87
2023-01-09T01:39:04.534Z,5.03
2023-01-09T01:41:40.989Z,6.33
2023-01-09T01:44:29.943Z,4.13
2023-01-09T01:46:59.538Z,3.97
2023-01-09T01:49:32.793Z,2.80
2023-01-09T01:52:06.316Z,2.47
2023-01-09T01:54:35.641Z,2.90
2023-01-09T01:57:06.023Z,4.63
2023-01-09T01:59:36.517Z,3.20
2023-01-09T02:02:17.647Z,3.73
2023-01-09T02:04:50.548Z,3.40
2023-01-09T02:07:22.612Z,2.97
2023-01-09T02:09:52.309Z,4.40
2023-01-09T02:12:23.779Z,3.00
2023-01-09T02:14:54.298Z,1.77
2023-01-09T02:17:30.785Z,4.40
2023-01-09T02:20:23.866Z,1.70
2023-01-09T02:23:02.531Z,2.80
2023-01-09T02:25:48.733Z,5.83
2023-01-09T02:28:29.120Z,2.90
2023-01-09T02:31:02.094Z,4.27
2023-01-09T02:33:40.730Z,2.80
2023-01-09T02:36:20.626Z,5.77
2023-01-09T02:38:54.874Z,2.70
2023-01-09T02:41:26.344Z,2.90
2023-01-09T02:44:04.769Z,7.13
2023-01-09T02:46:35.000Z,3.70
2023-01-09T02:49:03.583Z,1.83
2023-01-09T02:51:36.726Z,3.10
2023-01-09T02:54:14.348Z,2.63
2023-01-09T02:56:58.071Z,2.03
2023-01-09T02:59:29.454Z,4.87
2023-01-09T03:02:04.991Z,2.77
2023-01-09T03:04:39.736Z,2.33
2023-01-09T03:07:13.557Z,2.67
2023-01-09T03:09:49.470Z,1.90
2023-01-09T03:12:20.684Z,2.63
2023-01-09T03:14:52.482Z,1.90
2023-01-09T03:17:25.845Z,5.90
2023-01-09T03:19:59.560Z,3.60
2023-01-09T03:22:28.512Z,1.87
2023-01-09T03:25:09.688Z,4.03
2023-01-09T03:27:38.647Z,2.13
2023-01-09T03:30:08.480Z,3.37
2023-01-09T03:32:40.863Z,2.37
2023-01-09T03:35:10.812Z,1.93
2023-01-09T03:37:39.575Z,4.60
2023-01-09T03:40:09.539Z,1.37
2023-01-09T03:42:40.474Z,2.23
2023-01-09T03:45:10.450Z,3.77
2023-01-09T03:47:41.982Z,2.67
2023-01-09T03:50:18.795Z,1.30
2023-01-09T03:52:51.459Z,1.57
2023-01-09T03:55:20.706Z,2.80
2023-01-09T03:57:50.432Z,2.57
2023-01-09T04:00:21.861Z,2.37
2023-01-09T04:02:53.546Z,2.53
2023-01-09T04:05:26.793Z,3.70
2023-01-09T04:07:58.158Z,1.27
2023-01-09T04:10:27.761Z,1.10
2023-01-09T04:12:59.856Z,2.50
2023-01-09T04:15:32.655Z,2.20
2023-01-09T04:18:05.225Z,2.40
2023-01-09T04:20:34.254Z,1.33
2023-01-09T04:23:03.979Z,2.00
2023-01-09T04:25:33.427Z,2.47
2023-01-09T04:28:04.052Z,1.53
2023-01-09T04:30:32.784Z,4.53
2023-01-09T04:33:03.928Z,1.00
2023-01-09T04:35:47.399Z,2.17
2023-01-09T04:38:19.532Z,1.80
2023-01-09T04:40:52.149Z,1.37
2023-01-09T04:43:26.331Z,1.90
2023-01-09T04:46:10.125Z,1.23
2023-01-09T04:48:43.415Z,0.80
2023-01-09T04:51:14.038Z,1.20
2023-01-09T04:56:40.207Z,0.73
2023-01-09T04:59:09.704Z,0.90
2023-01-09T05:01:38.659Z,0.80
2023-01-09T05:04:10.092Z,0.70
2023-01-09T05:06:41.716Z,0.47
2023-01-09T05:09:21.093Z,2.00
2023-01-09T05:11:57.266Z,0.50
2023-01-09T05:14:26.166Z,0.80
2023-01-09T05:16:56.870Z,0.60
2023-01-09T05:19:27.304Z,0.40
2023-01-09T05:22:16.798Z,0.50
2023-01-09T05:24:47.857Z,0.50
2023-01-09T05:27:16.593Z,0.50
2023-01-09T05:29:45.558Z,0.50
2023-01-09T05:32:14.530Z,0.43
2023-01-09T05:34:49.124Z,0.40
2023-01-09T05:37:40.487Z,0.60
2023-01-09T05:40:09.600Z,0.70
2023-01-09T05:42:42.945Z,0.53
2023-01-09T05:45:15.196Z,0.50
2023-01-09T05:47:51.588Z,0.47
2023-01-09T05:50:25.487Z,0.50
2023-01-09T05:53:01.974Z,0.50
2023-01-09T05:55:39.631Z,0.40
2023-01-09T05:58:12.336Z,0.60
2023-01-09T06:00:54.392Z,0.60
2023-01-09T06:03:23.276Z,0.43
2023-01-09T06:06:05.964Z,0.40
2023-01-09T06:08:34.581Z,2.67
2023-01-09T06:11:03.224Z,0.40
2023-01-09T06:13:38.145Z,0.40
2023-01-09T06:16:07.323Z,0.50
2023-01-09T06:18:36.365Z,0.60
2023-01-09T06:21:07.524Z,0.40
2023-01-09T06:23:42.651Z,0.40
2023-01-09T06:26:11.315Z,0.60
2023-01-09T06:28:44.874Z,0.50
2023-01-09T06:31:17.140Z,0.70
2023-01-09T06:34:02.435Z,0.60
2023-01-09T06:36:32.652Z,0.40
2023-01-09T06:39:06.397Z,0.40
2023-01-09T06:41:35.392Z,0.50
2023-01-09T06:44:20.461Z,1.23
2023-01-09T06:46:53.201Z,2.10
2023-01-09T06:49:29.623Z,0.40
2023-01-09T06:52:02.105Z,0.50
2023-01-09T06:54:30.551Z,0.40
2023-01-09T06:57:00.083Z,0.60
2023-01-09T07:00:03.095Z,0.80
2023-01-09T07:02:33.540Z,0.50
2023-01-09T07:05:09.015Z,0.60
2023-01-09T07:07:39.916Z,0.50
2023-01-09T07:10:09.067Z,0.50
2023-01-09T07:12:41.570Z,0.50
2023-01-09T07:15:21.200Z,0.47
2023-01-09T07:17:55.361Z,0.40
2023-01-09T07:23:12.271Z,0.40
2023-01-09T07:25:42.647Z,0.40
2023-01-09T07:28:13.151Z,0.50
2023-01-09T07:30:41.619Z,0.40
2023-01-09T07:33:16.200Z,0.50
2023-01-09T07:35:50.617Z,0.40
2023-01-09T07:38:29.594Z,0.70
2023-01-09T07:41:02.308Z,0.77
2023-01-09T07:43:33.479Z,0.40
2023-01-09T07:46:06.515Z,0.40
2023-01-09T07:48:59.812Z,1.27
2023-01-09T07:51:48.225Z,0.80
2023-01-09T07:54:44.265Z,0.40
2023-01-09T07:58:05.394Z,0.97
2023-01-09T08:00:44.174Z,0.50
2023-01-09T08:03:38.544Z,0.40
2023-01-09T08:06:47.423Z,0.60
2023-01-09T08:09:16.546Z,0.47
2023-01-09T08:12:23.616Z,0.70
2023-01-09T08:15:13.038Z,0.50
2023-01-09T08:18:18.668Z,1.27
2023-01-09T08:21:10.173Z,0.40
2023-01-09T08:23:46.173Z,0.40
2023-01-09T08:29:01.936Z,0.40
2023-01-09T08:31:36.254Z,0.40
2023-01-09T08:34:15.625Z,1.37
2023-01-09T08:36:46.453Z,0.50
2023-01-09T08:39:34.043Z,1.00
2023-01-09T08:42:31.286Z,0.70
2023-01-09T08:45:19.859Z,0.50
2023-01-09T08:48:08.059Z,0.70
2023-01-09T08:50:39.653Z,0.50
2023-01-09T08:53:14.787Z,0.50
2023-01-09T08:55:47.651Z,0.50
2023-01-09T08:58:19.313Z,0.40
2023-01-09T09:00:52.687Z,0.60
2023-01-09T09:03:24.977Z,0.50
2023-01-09T09:05:55.052Z,0.50
2023-01-09T09:08:35.655Z,0.57
2023-01-09T09:11:17.035Z,0.40
2023-01-09T09:14:30.028Z,0.40
2023-01-09T09:17:01.278Z,0.50
2023-01-09T09:19:35.518Z,0.50
2023-01-09T09:22:15.189Z,0.40
2023-01-09T09:24:44.009Z,0.73
2023-01-09T09:27:17.983Z,0.50
2023-01-09T09:29:47.612Z,1.33
2023-01-09T09:32:23.440Z,0.60
2023-01-09T09:34:54.757Z,0.50
2023-01-09T09:37:24.385Z,0.60
2023-01-09T09:39:53.928Z,0.40
2023-01-09T09:42:52.724Z,0.80
2023-01-09T09:45:30.211Z,2.07
2023-01-09T09:48:09.058Z,2.23
2023-01-09T09:50:58.078Z,0.50
2023-01-09T09:53:36.412Z,0.80
2023-01-09T09:56:15.508Z,0.60
2023-01-09T09:59:13.222Z,0.50
2023-01-09T10:01:57.428Z,1.47
2023-01-09T10:04:40.647Z,0.50
2023-01-09T10:07:35.495Z,0.50
2023-01-09T10:10:06.219Z,0.50
2023-01-09T10:12:43.679Z,0.80
2023-01-09T10:18:35.456Z,0.70
2023-01-09T10:24:25.762Z,0.50
2023-01-09T10:27:17.797Z,0.50
2023-01-09T10:30:05.681Z,0.63
2023-01-09T10:32:50.229Z,0.40
2023-01-09T10:35:48.512Z,0.40
2023-01-09T10:38:28.492Z,1.43
2023-01-09T10:41:01.893Z,0.50
2023-01-09T10:43:43.915Z,1.23
2023-01-09T10:49:35.155Z,0.50
2023-01-09T10:52:19.351Z,2.10
2023-01-09T10:55:02.425Z,0.40
2023-01-09T10:57:38.145Z,0.50
2023-01-09T11:00:17.666Z,0.90
2023-01-09T11:02:47.249Z,3.13
2023-01-09T11:05:18.935Z,0.50
2023-01-09T11:07:50.338Z,0.50
2023-01-09T11:10:40.122Z,0.50
2023-01-09T11:13:16.411Z,0.50
2023-01-09T11:15:46.835Z,0.50
2023-01-09T11:18:34.415Z,0.73
2023-01-09T11:24:34.808Z,1.63
2023-01-09T11:27:46.878Z,0.50
2023-01-09T11:33:44.133Z,0.60
2023-01-09T11:39:20.306Z,2.10
2023-01-09T11:42:21.745Z,0.47
2023-01-09T11:45:05.700Z,0.40
2023-01-09T11:47:41.694Z,0.80
2023-01-09T11:50:18.638Z,0.90
2023-01-09T11:52:54.341Z,0.73
2023-01-09T11:55:29.303Z,1.37
2023-01-09T11:58:09.555Z,6.83
2023-01-09T12:00:49.025Z,0.50
2023-01-09T12:03:46.320Z,0.70
2023-01-09T12:06:26.577Z,0.60
2023-01-09T12:08:58.328Z,0.53
2023-01-09T12:11:34.886Z,0.40
2023-01-09T12:14:15.989Z,1.10
2023-01-09T12:17:00.154Z,3.03
2023-01-09T12:19:53.909Z,0.70
2023-01-09T12:22:31.125Z,2.93
2023-01-09T12:25:42.569Z,1.47
2023-01-09T12:28:31.253Z,0.50
2023-01-09T12:31:05.148Z,0.40
2023-01-09T12:33:50.539Z,0.73
2023-01-09T12:36:25.767Z,0.50
2023-01-09T12:39:17.331Z,1.17
2023-01-09T12:42:13.034Z,2.80
2023-01-09T12:45:04.749Z,2.00
2023-01-09T12:50:52.898Z,0.70
2023-01-09T12:53:38.043Z,0.50
2023-01-09T12:56:24.176Z,3.40
2023-01-09T12:58:55.277Z,1.07
2023-01-09T13:01:53.545Z,0.40
2023-01-09T13:04:28.103Z,0.90
2023-01-09T13:06:59.148Z,0.77
2023-01-09T13:09:30.613Z,1.70
2023-01-09T13:12:08.136Z,0.60
2023-01-09T13:14:42.142Z,0.40
2023-01-09T13:17:31.804Z,0.63
2023-01-09T13:20:18.232Z,1.63
2023-01-09T13:22:51.110Z,1.33
2023-01-09T13:25:45.154Z,0.47
2023-01-09T13:28:42.696Z,0.97
2023-01-09T13:31:50.259Z,1.33
2023-01-09T13:34:41.954Z,0.60
2023-01-09T13:40:41.390Z,0.57
2023-01-09T13:43:40.696Z,0.50
2023-01-09T13:46:48.370Z,1.20
2023-01-09T13:53:05.771Z,0.50
2023-01-09T13:55:36.410Z,1.03
2023-01-09T13:58:40.482Z,0.70
2023-01-09T14:01:37.513Z,4.60
2023-01-09T14:11:00.604Z,1.73
2023-01-09T14:13:57.979Z,1.67
2023-01-09T14:20:00.735Z,0.50
2023-01-09T14:26:29.559Z,0.50
2023-01-09T14:29:15.220Z,0.40
2023-01-09T14:34:59.336Z,1.13
2023-01-09T14:40:30.961Z,1.33
2023-01-09T14:43:50.415Z,0.90
2023-01-09T14:46:50.198Z,0.50
2023-01-09T14:53:28.829Z,2.77
2023-01-09T15:02:31.760Z,0.60
2023-01-09T15:05:50.362Z,0.60
2023-01-09T15:39:36.325Z,0.40
2023-01-09T16:45:52.632Z,0.60
2023-01-09T16:51:16.073Z,0.50
2023-01-09T16:57:53.392Z,0.50
2023-01-09T17:25:12.664Z,0.70
2023-01-09T19:12:05.355Z,1.13
2023-01-09T19:18:36.885Z,0.50
2023-01-09T19:21:35.162Z,2.10
2023-01-09T19:24:14.265Z,6.40
2023-01-09T19:56:58.480Z,0.60
2023-01-09T19:59:58.705Z,0.60
2023-01-09T20:03:12.445Z,0.73
2023-01-09T20:54:51.478Z,0.60
